Time;durP1;ratioP1;P1;durP2;ratioP2;P2;SDS_P1;SDS_P2;PMS_P1;PMS_P2;Temp;Humidity;BMP_temperature;BMP_pressure;BME280_temperature;BME280_humidity;BME280_pressure;Samples;Min_cycle;Max_cycle;Signal;HPM_P1;HPM_P2
2022/02/23 00:00:26;;;;;;;4.53;0.65;;;7.90;99.90;;;;;;5051726;28;20392;-53
2022/02/23 00:02:52;;;;;;;5.10;0.70;;;7.90;99.90;;;;;;5069475;28;20829;-53
2022/02/23 00:05:20;;;;;;;3.50;0.65;;;8.00;99.90;;;;;;5070046;28;20376;-53
2022/02/23 00:07:46;;;;;;;3.63;0.50;;;8.00;99.90;;;;;;5068247;28;20408;-57
2022/02/23 00:10:11;;;;;;;3.43;0.70;;;8.10;99.90;;;;;;5057887;28;20393;-53
2022/02/23 00:12:37;;;;;;;4.57;0.70;;;8.00;99.90;;;;;;5050053;28;20484;-52
2022/02/23 00:15:04;;;;;;;4.80;0.80;;;8.00;99.90;;;;;;5059332;28;20395;-53
2022/02/23 00:17:30;;;;;;;4.20;0.50;;;8.10;99.90;;;;;;5053461;28;20392;-53
2022/02/23 00:19:56;;;;;;;3.70;0.67;;;8.10;99.90;;;;;;5068983;28;20829;-53
2022/02/23 00:22:23;;;;;;;3.38;0.60;;;8.10;99.90;;;;;;5069448;28;20419;-53
2022/02/23 00:24:49;;;;;;;3.03;0.50;;;8.20;99.90;;;;;;5062891;28;20403;-56
2022/02/23 00:27:15;;;;;;;4.70;0.90;;;8.20;99.90;;;;;;5055985;28;20378;-53
2022/02/23 00:29:41;;;;;;;3.55;0.60;;;8.20;99.90;;;;;;5049590;28;20392;-53
2022/02/23 00:32:07;;;;;;;5.17;0.70;;;8.20;99.90;;;;;;5048780;28;20397;-53
2022/02/23 00:34:33;;;;;;;3.45;0.60;;;8.30;99.90;;;;;;5049882;28;20421;-53
2022/02/23 00:36:59;;;;;;;3.50;0.60;;;8.30;99.90;;;;;;5049076;28;20771;-53
2022/02/23 00:39:25;;;;;;;3.40;0.50;;;8.40;99.90;;;;;;5050452;28;20387;-53
2022/02/23 00:41:51;;;;;;;4.80;0.70;;;8.50;99.90;;;;;;5062095;28;20757;-54
2022/02/23 00:44:18;;;;;;;3.70;1.10;;;8.50;99.90;;;;;;5050962;28;20512;-53
2022/02/23 00:46:44;;;;;;;3.37;0.77;;;8.50;99.90;;;;;;5069248;28;20905;-53
2022/02/23 00:49:09;;;;;;;5.10;0.80;;;8.60;99.90;;;;;;5068553;28;20391;-54
2022/02/23 00:51:35;;;;;;;3.60;0.80;;;8.60;99.90;;;;;;5069649;28;20501;-54
2022/02/23 00:54:01;;;;;;;5.10;0.93;;;8.80;99.90;;;;;;5064330;28;20403;-53
2022/02/23 00:56:26;;;;;;;4.25;1.08;;;9.10;99.90;;;;;;5066502;28;20837;-53
2022/02/23 00:58:55;;;;;;;5.30;1.10;;;10.50;99.90;;;;;;5051137;28;20393;-53
2022/02/23 01:01:21;;;;;;;6.00;1.10;;;9.40;99.90;;;;;;5049350;28;20863;-53
2022/02/23 01:03:46;;;;;;;3.73;0.90;;;10.50;99.90;;;;;;5049448;28;20443;-56
2022/02/23 01:06:12;;;;;;;4.32;0.90;;;9.50;99.90;;;;;;5048746;28;20381;-54
2022/02/23 01:08:38;;;;;;;5.03;1.03;;;9.40;99.90;;;;;;5049412;28;20377;-53
2022/02/23 01:11:04;;;;;;;4.45;1.00;;;9.50;99.90;;;;;;5048782;28;20904;-53
2022/02/23 01:13:30;;;;;;;6.10;1.15;;;9.50;99.90;;;;;;5049440;28;20373;-54
2022/02/23 01:15:55;;;;;;;5.50;1.20;;;9.60;99.90;;;;;;5048391;28;20381;-53
2022/02/23 01:18:22;;;;;;;4.10;0.88;;;9.50;99.90;;;;;;5049513;28;20401;-53
2022/02/23 01:20:47;;;;;;;4.97;1.00;;;9.50;99.90;;;;;;5048818;28;20523;-57
2022/02/23 01:23:14;;;;;;;4.60;0.70;;;9.60;99.90;;;;;;5049358;28;20944;-52
2022/02/23 01:25:40;;;;;;;7.43;1.10;;;9.50;99.90;;;;;;5049289;28;20378;-53
2022/02/23 01:28:08;;;;;;;4.30;0.90;;;9.50;99.90;;;;;;5048651;28;21216;-52
2022/02/23 01:30:34;;;;;;;3.90;1.00;;;9.40;99.90;;;;;;5049094;28;20373;-56
2022/02/23 01:33:00;;;;;;;5.22;0.80;;;9.60;99.90;;;;;;5048533;28;20404;-52
2022/02/23 01:35:26;;;;;;;7.35;1.00;;;8.70;99.90;;;;;;5048310;28;20743;-52
2022/02/23 01:37:53;;;;;;;7.18;1.10;;;8.80;99.90;;;;;;5048401;28;20378;-56
2022/02/23 01:40:19;;;;;;;6.78;1.23;;;6.90;99.90;;;;;;5049184;28;20382;-54
2022/02/23 01:42:45;;;;;;;5.30;0.95;;;6.70;99.90;;;;;;5048868;28;20389;-55
2022/02/23 01:45:11;;;;;;;5.97;1.08;;;6.40;99.90;;;;;;5048706;28;20461;-55
2022/02/23 01:47:38;;;;;;;6.90;1.10;;;6.10;99.90;;;;;;5049209;28;20480;-54
2022/02/23 01:50:06;;;;;;;6.85;1.08;;;5.90;99.90;;;;;;5048035;28;20988;-55
2022/02/23 01:52:31;;;;;;;8.32;1.30;;;6.00;99.90;;;;;;5048659;28;20397;-56
2022/02/23 01:54:57;;;;;;;6.50;1.10;;;6.00;99.90;;;;;;5048273;28;20866;-56
2022/02/23 01:57:23;;;;;;;5.57;1.83;;;6.10;99.90;;;;;;5060048;28;20384;-55
2022/02/23 01:59:50;;;;;;;7.10;1.20;;;6.20;99.90;;;;;;5052825;28;20382;-58
2022/02/23 02:02:15;;;;;;;4.13;0.90;;;6.10;99.90;;;;;;5054480;28;20698;-55
2022/02/23 02:04:41;;;;;;;7.35;1.10;;;7.70;99.90;;;;;;5072262;28;20376;-55
2022/02/23 02:07:07;;;;;;;10.85;1.30;;;5.90;99.90;;;;;;5071372;28;20515;-55
2022/02/23 02:09:33;;;;;;;6.13;1.10;;;7.20;99.90;;;;;;5072194;28;20387;-54
2022/02/23 02:11:59;;;;;;;7.20;1.00;;;5.90;99.90;;;;;;5071608;28;20407;-55
2022/02/23 02:14:25;;;;;;;6.47;1.42;;;5.80;99.90;;;;;;5072307;28;20761;-56
2022/02/23 02:16:51;;;;;;;5.78;1.00;;;5.80;99.90;;;;;;5071804;28;20380;-58
2022/02/23 02:19:17;;;;;;;7.60;1.10;;;5.70;99.90;;;;;;5071939;28;20411;-55
2022/02/23 02:22:10;;;;;;;6.35;0.90;;;5.80;99.90;;;;;;5072117;28;20404;-55
2022/02/23 02:24:38;;;;;;;10.70;1.13;;;7.80;99.90;;;;;;5068192;28;20402;-54
2022/02/23 02:27:06;;;;;;;5.40;1.00;;;5.90;99.90;;;;;;5071626;28;20379;-54
2022/02/23 02:29:33;;;;;;;8.48;1.20;;;5.80;99.90;;;;;;5065611;28;20402;-54
2022/02/23 02:32:00;;;;;;;10.18;1.70;;;5.70;99.90;;;;;;5060066;28;20486;-54
2022/02/23 02:34:26;;;;;;;7.95;1.20;;;5.80;99.90;;;;;;5052012;28;20472;-54
2022/02/23 02:36:52;;;;;;;5.90;1.20;;;5.90;99.90;;;;;;5051380;28;20851;-58
2022/02/23 02:39:19;;;;;;;6.20;1.60;;;5.90;99.90;;;;;;5050713;28;20447;-54
2022/02/23 02:41:45;;;;;;;5.10;0.90;;;5.90;99.90;;;;;;5051903;28;20389;-55
2022/02/23 02:44:11;;;;;;;6.75;1.00;;;5.90;99.90;;;;;;5050962;28;20928;-55
2022/02/23 02:46:37;;;;;;;6.80;1.30;;;6.00;99.90;;;;;;5051795;28;20382;-54
2022/02/23 02:49:03;;;;;;;5.20;1.20;;;7.50;99.90;;;;;;5051200;28;20393;-54
2022/02/23 02:51:29;;;;;;;9.88;1.80;;;6.10;99.90;;;;;;5050595;28;21086;-55
2022/02/23 02:53:55;;;;;;;7.78;1.85;;;6.10;99.90;;;;;;5051105;28;20381;-55
2022/02/23 02:56:21;;;;;;;7.57;1.02;;;6.10;99.90;;;;;;5051755;28;20984;-55
2022/02/23 02:58:52;;;;;;;5.47;1.30;;;6.20;99.90;;;;;;5051255;28;20469;-55
2022/02/23 03:01:19;;;;;;;6.43;1.52;;;6.20;99.90;;;;;;5051576;28;20382;-55
2022/02/23 03:03:45;;;;;;;9.10;1.60;;;6.10;99.90;;;;;;5051511;28;20385;-55
2022/02/23 03:06:11;;;;;;;6.57;1.20;;;6.20;99.90;;;;;;5052785;28;20578;-54
2022/02/23 03:08:37;;;;;;;9.38;1.30;;;6.20;99.90;;;;;;5067583;28;20851;-55
2022/02/23 03:11:02;;;;;;;7.13;1.30;;;6.20;99.90;;;;;;5049916;28;20401;-55
2022/02/23 03:13:28;;;;;;;9.73;1.45;;;6.30;99.90;;;;;;5051229;28;20381;-52
2022/02/23 03:15:54;;;;;;;8.57;1.80;;;6.30;99.90;;;;;;5050270;28;20377;-52
2022/02/23 03:18:19;;;;;;;10.00;1.40;;;6.30;99.90;;;;;;5050975;28;20794;-53
2022/02/23 03:20:45;;;;;;;6.53;1.70;;;6.30;99.90;;;;;;5050928;28;20481;-53
2022/02/23 03:23:11;;;;;;;10.57;1.80;;;7.40;99.90;;;;;;5049960;28;20373;-52
2022/02/23 03:25:38;;;;;;;10.00;1.80;;;6.60;99.90;;;;;;5051040;28;20417;-52
2022/02/23 03:28:04;;;;;;;10.50;2.35;;;6.30;99.90;;;;;;5050147;28;20400;-52
2022/02/23 03:30:30;;;;;;;8.75;1.75;;;6.30;99.90;;;;;;5050452;28;20389;-52
2022/02/23 03:32:55;;;;;;;10.05;1.70;;;6.20;99.90;;;;;;5032173;28;20405;-52
2022/02/23 03:35:27;;;;;;;10.77;1.53;;;7.30;99.90;;;;;;5050726;28;20385;-55
2022/02/23 03:37:56;;;;;;;8.20;1.88;;;6.10;99.90;;;;;;5048701;28;20398;-57
2022/02/23 03:40:23;;;;;;;7.43;1.92;;;6.10;99.90;;;;;;5050634;28;20409;-55
2022/02/23 03:42:49;;;;;;;9.82;1.85;;;6.10;99.90;;;;;;5050575;28;20472;-53
2022/02/23 03:45:15;;;;;;;8.65;1.70;;;6.10;99.90;;;;;;5049777;28;21287;-52
2022/02/23 03:47:41;;;;;;;6.70;1.40;;;6.10;99.90;;;;;;5050203;28;20748;-52
2022/02/23 03:50:07;;;;;;;6.53;1.77;;;6.10;99.90;;;;;;5049646;28;20404;-53
2022/02/23 03:52:33;;;;;;;14.82;1.92;;;6.10;99.90;;;;;;5050273;28;20407;-53
2022/02/23 03:54:59;;;;;;;7.80;1.90;;;6.20;99.90;;;;;;5049521;28;20465;-54
2022/02/23 03:57:24;;;;;;;8.93;1.70;;;6.30;99.90;;;;;;5050512;28;20403;-53
2022/02/23 03:59:50;;;;;;;10.60;2.10;;;6.20;99.90;;;;;;5049879;28;20736;-57
2022/02/23 04:02:16;;;;;;;10.60;2.23;;;6.20;99.90;;;;;;5049478;28;20472;-53
2022/02/23 04:04:41;;;;;;;7.82;1.90;;;6.30;99.90;;;;;;5060290;28;20401;-53
2022/02/23 04:07:07;;;;;;;7.20;1.70;;;6.40;99.90;;;;;;5049224;28;20378;-53
2022/02/23 04:09:34;;;;;;;10.23;1.40;;;7.80;99.90;;;;;;5049976;28;20389;-53
2022/02/23 04:12:00;;;;;;;8.20;1.67;;;6.50;99.90;;;;;;5031306;28;20409;-53
2022/02/23 04:14:26;;;;;;;6.93;1.50;;;6.60;99.90;;;;;;5049836;28;20908;-53
2022/02/23 04:16:51;;;;;;;6.87;1.37;;;6.70;99.90;;;;;;5049479;28;20793;-58
2022/02/23 04:19:17;;;;;;;6.38;1.67;;;6.70;99.90;;;;;;5051499;28;20762;-52
2022/02/23 04:21:43;;;;;;;7.70;1.80;;;6.60;99.90;;;;;;5053095;28;20767;-52
2022/02/23 04:24:09;;;;;;;11.70;1.80;;;6.40;99.90;;;;;;5066769;28;20376;-52
2022/02/23 04:26:35;;;;;;;8.30;2.20;;;6.40;99.90;;;;;;5062694;28;20386;-52
2022/02/23 04:29:05;;;;;;;12.90;2.10;;;7.80;99.90;;;;;;5069028;28;20378;-52
2022/02/23 04:31:32;;;;;;;11.25;2.13;;;6.30;99.90;;;;;;5068715;28;20439;-52
2022/02/23 04:34:01;;;;;;;9.90;2.10;;;6.30;99.90;;;;;;5069047;28;20501;-52
2022/02/23 04:36:27;;;;;;;9.05;1.98;;;6.30;99.90;;;;;;5069435;28;20578;-51
2022/02/23 04:38:53;;;;;;;10.75;2.20;;;6.30;99.90;;;;;;5069182;28;20474;-56
2022/02/23 04:41:19;;;;;;;9.55;1.70;;;6.20;99.90;;;;;;5068527;28;20406;-52
2022/02/23 04:43:45;;;;;;;9.25;2.15;;;6.10;99.90;;;;;;5068002;28;20483;-52
2022/02/23 04:46:11;;;;;;;10.20;2.07;;;6.00;99.90;;;;;;5067597;28;20454;-54
2022/02/23 04:48:39;;;;;;;8.25;2.28;;;6.00;99.90;;;;;;5069769;28;20387;-54
2022/02/23 04:51:05;;;;;;;11.95;2.03;;;5.90;99.90;;;;;;5066843;28;20419;-55
2022/02/23 04:53:31;;;;;;;11.18;1.73;;;5.80;99.90;;;;;;5062597;28;20402;-55
2022/02/23 04:55:57;;;;;;;11.90;2.20;;;5.80;99.90;;;;;;5068573;28;20384;-55
2022/02/23 04:58:23;;;;;;;9.65;2.40;;;5.70;99.90;;;;;;5068950;28;20482;-54
2022/02/23 05:00:49;;;;;;;11.15;2.40;;;5.60;99.90;;;;;;5068723;28;20926;-56
2022/02/23 05:03:15;;;;;;;8.63;1.90;;;5.80;99.90;;;;;;5066629;28;20388;-54
2022/02/23 05:05:42;;;;;;;9.40;2.10;;;5.50;99.90;;;;;;5066317;28;20407;-54
2022/02/23 05:08:08;;;;;;;9.73;1.87;;;5.50;99.90;;;;;;5060943;28;20405;-55
2022/02/23 05:10:34;;;;;;;7.75;2.45;;;5.60;99.90;;;;;;5063591;28;20479;-54
2022/02/23 05:12:59;;;;;;;7.05;1.85;;;5.60;99.90;;;;;;5048274;28;20799;-54
2022/02/23 05:15:25;;;;;;;13.83;1.93;;;5.60;99.90;;;;;;5049318;28;20579;-55
2022/02/23 05:17:51;;;;;;;10.40;2.35;;;5.50;99.90;;;;;;5049105;28;20919;-58
2022/02/23 05:20:17;;;;;;;8.35;1.90;;;5.50;99.90;;;;;;5048398;28;20386;-54
2022/02/23 05:22:46;;;;;;;9.80;2.30;;;5.40;99.90;;;;;;5049205;28;20381;-54
2022/02/23 05:25:12;;;;;;;10.57;1.95;;;6.60;99.90;;;;;;5048456;28;20613;-55
2022/02/23 05:27:39;;;;;;;9.38;3.00;;;5.40;99.90;;;;;;5048902;28;20389;-54
2022/02/23 05:30:06;;;;;;;8.27;2.60;;;5.30;99.90;;;;;;5048614;28;20374;-54
2022/02/23 05:32:31;;;;;;;9.05;1.80;;;5.10;99.90;;;;;;5058290;28;20419;-54
2022/02/23 05:34:57;;;;;;;9.63;1.90;;;5.00;99.90;;;;;;5072202;28;20387;-56
2022/02/23 05:37:23;;;;;;;12.30;2.10;;;5.00;99.90;;;;;;5069109;28;20407;-55
2022/02/23 05:39:48;;;;;;;8.32;2.40;;;5.00;99.90;;;;;;5068652;28;20742;-54
2022/02/23 05:42:14;;;;;;;14.45;2.42;;;5.00;99.90;;;;;;5071507;28;20383;-54
2022/02/23 05:44:39;;;;;;;8.10;1.90;;;5.10;99.90;;;;;;5072558;28;20465;-54
2022/02/23 05:47:05;;;;;;;10.02;2.20;;;5.10;99.90;;;;;;5071444;28;20430;-53
2022/02/23 05:49:31;;;;;;;7.60;2.10;;;5.10;99.90;;;;;;5071981;28;20392;-54
2022/02/23 05:51:57;;;;;;;6.87;2.40;;;5.10;99.90;;;;;;5054182;28;20411;-56
2022/02/23 05:54:22;;;;;;;8.68;2.50;;;5.10;99.90;;;;;;5072487;28;20395;-54
2022/02/23 05:56:48;;;;;;;11.13;2.40;;;5.10;99.90;;;;;;5071458;28;20737;-54
2022/02/23 05:59:14;;;;;;;10.60;2.40;;;5.10;99.90;;;;;;5066361;28;20393;-54
2022/02/23 06:01:39;;;;;;;9.43;2.30;;;5.20;99.90;;;;;;5069328;28;20915;-54
2022/02/23 06:04:05;;;;;;;10.40;2.90;;;5.20;99.90;;;;;;5065878;28;20395;-54
2022/02/23 06:06:31;;;;;;;9.23;2.90;;;5.30;99.90;;;;;;5072214;28;20422;-54
2022/02/23 06:08:57;;;;;;;12.77;2.70;;;5.40;99.90;;;;;;5065888;28;20387;-58
2022/02/23 06:11:26;;;;;;;11.80;3.35;;;5.70;99.90;;;;;;5056940;28;20412;-54
2022/02/23 06:13:53;;;;;;;7.15;2.40;;;5.70;99.90;;;;;;5063872;28;20383;-54
2022/02/23 06:16:23;;;;;;;10.57;2.50;;;5.80;99.90;;;;;;5064364;28;20385;-54
2022/02/23 06:18:50;;;;;;;9.95;2.50;;;5.90;99.90;;;;;;5055855;28;20464;-60
2022/02/23 06:21:16;;;;;;;8.52;2.35;;;5.90;99.90;;;;;;5068904;28;20422;-53
2022/02/23 06:23:44;;;;;;;14.10;3.27;;;6.00;99.90;;;;;;5056163;28;20401;-54
2022/02/23 06:26:09;;;;;;;9.75;2.40;;;6.00;99.90;;;;;;5058691;28;20384;-54
2022/02/23 06:28:35;;;;;;;10.65;2.20;;;6.00;99.90;;;;;;5051596;28;20382;-53
2022/02/23 06:31:01;;;;;;;7.83;2.30;;;6.10;99.90;;;;;;5032725;28;20410;-53
2022/02/23 06:33:28;;;;;;;10.55;2.35;;;6.30;99.90;;;;;;5051868;28;20398;-53
2022/02/23 06:35:53;;;;;;;9.05;2.40;;;6.40;99.90;;;;;;5051597;28;20486;-56
2022/02/23 06:38:20;;;;;;;9.87;2.10;;;6.40;99.90;;;;;;5051472;28;20900;-53
2022/02/23 06:40:48;;;;;;;10.32;1.80;;;6.40;99.90;;;;;;5051539;28;20396;-53
2022/02/23 06:43:15;;;;;;;10.77;2.30;;;6.30;99.90;;;;;;5050845;28;20954;-54
2022/02/23 06:45:43;;;;;;;9.80;2.47;;;6.50;99.90;;;;;;5050792;28;20382;-53
2022/02/23 06:48:09;;;;;;;8.73;2.20;;;6.50;99.90;;;;;;5053579;28;20484;-53
2022/02/23 06:50:35;;;;;;;8.35;2.30;;;6.60;99.90;;;;;;5067601;28;20392;-53
2022/02/23 06:53:01;;;;;;;10.10;2.50;;;6.70;99.90;;;;;;5055318;28;20421;-53
2022/02/23 06:55:27;;;;;;;6.63;1.90;;;8.00;99.90;;;;;;5051432;28;20385;-53
2022/02/23 06:57:52;;;;;;;9.23;2.28;;;6.60;99.90;;;;;;5051440;28;20578;-54
2022/02/23 07:00:18;;;;;;;12.27;2.57;;;6.50;99.90;;;;;;5050783;28;20409;-53
2022/02/23 07:02:44;;;;;;;7.63;2.40;;;6.60;99.90;;;;;;5051314;28;20402;-53
2022/02/23 07:05:11;;;;;;;7.30;2.30;;;6.70;99.90;;;;;;5060473;28;20488;-54
2022/02/23 07:07:37;;;;;;;7.10;2.20;;;7.00;99.90;;;;;;5069229;28;20400;-53
2022/02/23 07:10:09;;;;;;;10.32;2.63;;;7.00;99.90;;;;;;5052246;28;21081;-53
2022/02/23 07:12:35;;;;;;;7.20;2.50;;;7.20;99.90;;;;;;5070829;28;20415;-53
2022/02/23 07:15:01;;;;;;;7.43;2.50;;;7.10;99.90;;;;;;5069965;28;20787;-53
2022/02/23 07:17:27;;;;;;;8.10;2.65;;;7.30;99.90;;;;;;5071030;28;20379;-56
2022/02/23 07:19:53;;;;;;;8.10;2.45;;;8.00;99.90;;;;;;5070741;28;20401;-54
2022/02/23 07:22:19;;;;;;;6.87;2.20;;;9.60;99.90;;;;;;5070253;28;20404;-53
2022/02/23 07:24:44;;;;;;;6.88;2.10;;;10.90;99.90;;;;;;5070798;28;20375;-53
2022/02/23 07:27:13;;;;;;;8.10;2.35;;;12.00;99.90;;;;;;5043748;28;20496;-54
2022/02/23 07:29:39;;;;;;;6.22;2.20;;;13.20;99.90;;;;;;5033129;28;20378;-54
2022/02/23 07:32:05;;;;;;;8.88;3.42;;;13.60;99.90;;;;;;5063906;28;20416;-54
2022/02/23 07:34:31;;;;;;;8.10;2.80;;;13.10;99.90;;;;;;5070486;28;20419;-54
2022/02/23 07:36:57;;;;;;;10.32;3.00;;;12.10;99.90;;;;;;5070099;28;20922;-57
2022/02/23 07:39:22;;;;;;;9.00;3.55;;;11.60;99.90;;;;;;5069454;28;20403;-54
2022/02/23 07:41:48;;;;;;;9.97;4.23;;;11.30;99.90;;;;;;5070043;28;20392;-54
2022/02/23 07:44:13;;;;;;;9.88;3.58;;;10.70;99.90;;;;;;5069528;28;20451;-54
2022/02/23 07:46:40;;;;;;;10.10;3.40;;;10.10;99.90;;;;;;5060197;28;20566;-55
2022/02/23 07:49:06;;;;;;;9.10;3.00;;;9.50;99.90;;;;;;5062498;28;20414;-54
2022/02/23 07:51:31;;;;;;;8.63;2.75;;;9.00;99.90;;;;;;5066903;28;20404;-54
2022/02/23 07:53:58;;;;;;;9.20;3.20;;;8.50;99.90;;;;;;5069785;28;20759;-57
2022/02/23 07:56:24;;;;;;;12.43;3.40;;;8.40;99.90;;;;;;5069967;28;20426;-56
2022/02/23 07:58:53;;;;;;;8.13;3.00;;;8.70;99.90;;;;;;5063589;28;20849;-55
2022/02/23 08:01:32;;;;;;;9.27;2.60;;;8.50;99.90;;;;;;5055767;28;21518;-55
2022/02/23 08:03:58;;;;;;;9.38;3.00;;;8.60;99.90;;;;;;5049714;28;20387;-58
2022/02/23 08:06:25;;;;;;;8.82;2.80;;;;;;;;;;5053789;28;20391;-54
2022/02/23 08:08:53;;;;;;;8.20;2.60;;;;;;;;;;5057540;28;20426;-53
2022/02/23 08:11:19;;;;;;;11.70;2.83;;;;;;;;;;5049318;28;20455;-54
2022/02/23 08:13:46;;;;;;;8.02;2.70;;;;;;;;;;5058920;28;20859;-54
2022/02/23 08:21:42;;;;;;;12.65;11.30;;;;;;;;;;5061993;28;20442;-55
2022/02/23 08:24:08;;;;;;;8.05;4.70;;;;;;;;;;5064593;28;20878;-54
2022/02/23 08:26:34;;;;;;;9.38;3.00;;;;;;;;;;5067264;28;20403;-56
2022/02/23 08:29:00;;;;;;;8.73;5.65;;;;;;;;;;5066893;28;20451;-59
2022/02/23 08:31:26;;;;;;;10.63;6.43;;;;;;;;;;5069308;28;20407;-54
2022/02/23 08:33:52;;;;;;;7.63;3.28;;;;;;;;;;5067935;28;20837;-57
2022/02/23 08:36:18;;;;;;;8.57;3.20;;;;;;;;;;5057156;28;20383;-56
2022/02/23 08:38:44;;;;;;;10.38;7.13;;;;;;;;;;5069284;28;20384;-55
2022/02/23 08:41:11;;;;;;;8.75;4.00;;;;;;;;;;5051393;28;20691;-56
2022/02/23 08:43:37;;;;;;;10.33;3.83;;;;;;;;;;5063264;28;20461;-58
2022/02/23 08:46:03;;;;;;;8.02;3.00;;;;;;;;;;5064312;28;20406;-55
2022/02/23 08:48:29;;;;;;;11.02;4.10;;;;;;;;;;5071842;28;20469;-54
2022/02/23 08:50:55;;;;;;;8.98;4.97;;;;;;;;;;5075895;28;20401;-53
2022/02/23 08:53:23;;;;;;;8.20;3.13;;;;;;;;;;5078633;28;20379;-55
2022/02/23 08:55:49;;;;;;;10.00;3.77;;;;;;;;;;5055278;28;20394;-56
2022/02/23 08:58:15;;;;;;;10.40;3.78;;;;;;;;;;5083775;28;20417;-53
2022/02/23 09:00:42;;;;;;;9.27;4.50;;;;;;;;;;5071498;28;20403;-55
2022/02/23 09:03:08;;;;;;;6.40;4.22;;;;;;;;;;5068607;28;20428;-57
2022/02/23 09:05:34;;;;;;;7.90;4.23;;;;;;;;;;5069482;28;20372;-55
2022/02/23 09:08:00;;;;;;;6.68;3.20;;;;;;;;;;5069756;28;20701;-58
2022/02/23 09:10:26;;;;;;;8.77;3.10;;;;;;;;;;5073456;28;20451;-56
2022/02/23 09:12:53;;;;;;;8.13;3.58;;;;;;;;;;5055628;28;20460;-55
2022/02/23 09:15:19;;;;;;;9.23;4.05;;;;;;;;;;5072557;28;20394;-55
2022/02/23 09:17:45;;;;;;;9.30;5.40;;;;;;;;;;5073433;28;20887;-56
2022/02/23 09:20:12;;;;;;;9.02;4.80;;;;;;;;;;5072563;28;20853;-56
2022/02/23 09:22:38;;;;;;;8.73;3.55;;;;;;;;;;5073542;28;20829;-55
2022/02/23 09:25:07;;;;;;;7.90;3.10;;;;;;;;;;5073096;28;20475;-57
2022/02/23 09:27:34;;;;;;;8.55;2.58;;;;;;;;;;5073613;28;20379;-57
2022/02/23 09:30:00;;;;;;;7.93;2.80;;;;;;;;;;5073427;28;20428;-57
2022/02/23 09:32:26;;;;;;;9.85;3.00;;;;;;;;;;5082915;28;20943;-56
2022/02/23 09:34:53;;;;;;;11.65;3.20;;;;;;;;;;5093097;28;20381;-56
2022/02/23 09:37:19;;;;;;;9.97;3.10;;;;;;;;;;5092310;28;20370;-55
2022/02/23 09:39:45;;;;;;;13.38;3.13;;;;;;;;;;5093204;28;20453;-57
2022/02/23 09:42:11;;;;;;;10.65;3.45;;;;;;;;;;5092281;28;20378;-56
2022/02/23 09:44:44;;;;;;;13.87;8.23;;;;;;;;;;5093411;28;20657;-54
2022/02/23 09:47:11;;;;;;;9.80;4.93;;;;;;;;;;5092240;28;20378;-54
2022/02/23 09:49:37;;;;;;;9.20;3.80;;;;;;;;;;5093252;28;20370;-54
2022/02/23 09:52:04;;;;;;;10.68;3.95;;;;;;;;;;5092282;28;20408;-54
2022/02/23 09:54:31;;;;;;;8.88;4.30;;;;;;;;;;5092963;28;20413;-54
2022/02/23 09:56:57;;;;;;;12.17;3.53;;;;;;;;;;5092545;28;20427;-59
2022/02/23 09:59:25;;;;;;;8.13;3.70;;;;;;;;;;5092961;28;20363;-56
2022/02/23 10:01:53;;;;;;;10.15;3.60;;;;;;;;;;5093458;28;20378;-57
2022/02/23 10:04:22;;;;;;;10.50;3.30;;;21.10;66.90;;;;;;5092054;28;20382;-54
2022/02/23 10:06:48;;;;;;;10.00;2.65;;;20.90;67.70;;;;;;5092441;28;20378;-55
2022/02/23 10:09:13;;;;;;;19.93;18.03;;;18.70;71.90;;;;;;5091985;28;20389;-56
2022/02/23 10:11:41;;;;;;;13.93;12.57;;;17.00;76.90;;;;;;5092233;28;20500;-57
2022/02/23 10:14:10;;;;;;;19.08;17.17;;;15.90;81.70;;;;;;5080169;28;20433;-57
2022/02/23 10:16:43;;;;;;;12.48;10.50;;;16.10;83.40;;;;;;5072960;28;20376;-56
2022/02/23 10:19:17;;;;;;;12.45;10.52;;;16.20;85.80;;;;;;5070233;28;20771;-56
2022/02/23 10:21:48;;;;;;;10.52;9.40;;;16.80;83.10;;;;;;5072443;28;20419;-57
2022/02/23 10:24:33;;;;;;;11.55;10.10;;;16.80;81.30;;;;;;5071464;28;20737;-56
2022/02/23 10:27:09;;;;;;;11.60;10.40;;;16.50;80.80;;;;;;5072158;28;20387;-60
2022/02/23 10:29:47;;;;;;;11.50;9.40;;;15.90;82.40;;;;;;5072074;28;20737;-56
2022/02/23 10:32:14;;;;;;;11.20;8.90;;;15.60;82.80;;;;;;5071339;28;20754;-56
2022/02/23 10:34:43;;;;;;;13.05;9.57;;;15.10;84.00;;;;;;5071662;28;20452;-56
2022/02/23 10:37:12;;;;;;;9.45;7.90;;;15.40;89.10;;;;;;5071793;28;20380;-56
2022/02/23 10:39:48;;;;;;;9.43;7.75;;;16.70;86.10;;;;;;5071348;28;20391;-53
2022/02/23 10:42:16;;;;;;;10.02;8.50;;;18.30;86.20;;;;;;5071245;28;20392;-54
2022/02/23 10:44:44;;;;;;;11.88;10.20;;;19.10;78.90;;;;;;5071625;28;20438;-54
2022/02/23 10:47:21;;;;;;;6.28;1.50;;;19.70;76.20;;;;;;5071253;28;20408;-55
2022/02/23 10:50:07;;;;;;;7.72;1.88;;;20.20;73.10;;;;;;5071736;28;20403;-54
2022/02/23 10:52:35;;;;;;;11.00;1.95;;;20.10;69.00;;;;;;5071807;28;20889;-55
2022/02/23 10:55:22;;;;;;;9.07;5.63;;;18.90;68.30;;;;;;5070475;28;20921;-55
2022/02/23 10:57:59;;;;;;;8.10;6.20;;;17.90;74.10;;;;;;5071438;28;20379;-54
2022/02/23 11:00:31;;;;;;;9.50;8.70;;;18.50;75.70;;;;;;5071326;28;20841;-55
2022/02/23 11:02:57;;;;;;;11.00;9.80;;;19.20;72.30;;;;;;5070980;28;20745;-55
2022/02/23 11:05:24;;;;;;;9.90;5.38;;;19.60;74.60;;;;;;5071669;28;20384;-54
2022/02/23 11:07:52;;;;;;;10.65;9.50;;;19.30;70.90;;;;;;5071268;28;20387;-55
2022/02/23 11:10:18;;;;;;;10.65;9.60;;;19.20;73.00;;;;;;5070554;28;20406;-55
2022/02/23 11:12:49;;;;;;;9.57;8.50;;;19.20;71.20;;;;;;5071096;28;20518;-55
2022/02/23 11:15:20;;;;;;;11.13;10.15;;;19.50;72.90;;;;;;5050576;28;20392;-56
2022/02/23 11:17:48;;;;;;;11.02;9.55;;;19.30;68.50;;;;;;5051146;28;20397;-54
2022/02/23 11:20:18;;;;;;;11.00;9.90;;;18.20;71.30;;;;;;5050964;28;20419;-55
2022/02/23 11:22:48;;;;;;;11.40;10.40;;;17.90;72.90;;;;;;5051253;28;20382;-56
2022/02/23 11:25:14;;;;;;;10.93;9.93;;;17.00;74.80;;;;;;5050584;28;20385;-55
2022/02/23 11:27:45;;;;;;;10.77;9.90;;;16.70;77.00;;;;;;5050846;28;20385;-55
2022/02/23 11:30:16;;;;;;;10.32;9.32;;;16.90;75.10;;;;;;5049041;28;20815;-55
2022/02/23 11:32:43;;;;;;;13.05;10.60;;;16.60;80.10;;;;;;5050833;28;20401;-55
2022/02/23 11:35:13;;;;;;;10.40;8.95;;;16.80;77.80;;;;;;5050493;28;20443;-55
2022/02/23 11:37:41;;;;;;;11.57;9.10;;;16.70;76.10;;;;;;5050756;28;20378;-55
2022/02/23 11:40:10;;;;;;;12.07;9.38;;;16.70;78.20;;;;;;5049514;28;20412;-58
2022/02/23 11:42:36;;;;;;;9.43;8.43;;;16.70;76.80;;;;;;5032898;28;20425;-55
2022/02/23 11:45:20;;;;;;;8.70;7.85;;;16.20;81.40;;;;;;5050136;28;20361;-55
2022/02/23 11:47:59;;;;;;;10.17;8.83;;;16.00;79.10;;;;;;5050986;28;20442;-55
2022/02/23 11:50:31;;;;;;;9.25;8.35;;;15.90;78.60;;;;;;5050340;28;20372;-55
2022/02/23 11:53:30;;;;;;;10.77;3.10;;;15.70;78.50;;;;;;5050386;28;20409;-55
2022/02/23 11:56:16;;;;;;;8.25;2.10;;;15.40;80.40;;;;;;5050580;28;20382;-54
2022/02/23 11:58:55;;;;;;;8.90;6.45;;;15.50;80.40;;;;;;5050814;28;20382;-57
2022/02/23 12:01:21;;;;;;;8.30;2.45;;;15.60;82.00;;;;;;5049652;28;20377;-55
2022/02/23 12:04:07;;;;;;;7.90;2.30;;;15.70;77.90;;;;;;5048777;28;20394;-55
2022/02/23 12:07:12;;;;;;;8.60;2.10;;;15.50;78.60;;;;;;5050127;28;20423;-55
2022/02/23 12:09:52;;;;;;;7.63;1.73;;;15.50;76.60;;;;;;5045754;28;20399;-56
2022/02/23 12:12:38;;;;;;;7.07;3.90;;;15.50;79.50;;;;;;5047860;28;20767;-55
2022/02/23 12:15:09;;;;;;;7.80;5.75;;;15.80;83.10;;;;;;5068304;28;20432;-57
2022/02/23 12:17:49;;;;;;;9.00;6.80;;;15.80;81.30;;;;;;5069582;28;20461;-55
2022/02/23 12:20:41;;;;;;;10.70;7.20;;;15.50;80.40;;;;;;5068544;28;20395;-55
2022/02/23 12:23:20;;;;;;;9.50;6.90;;;15.40;81.50;;;;;;5069498;28;20403;-55
2022/02/23 12:25:51;;;;;;;11.25;6.80;;;15.70;83.00;;;;;;5070140;28;20383;-56
2022/02/23 12:28:20;;;;;;;10.23;7.00;;;15.90;80.60;;;;;;5068847;28;20539;-56
2022/02/23 12:30:55;;;;;;;8.93;7.40;;;16.10;78.90;;;;;;5069733;28;20463;-56
2022/02/23 12:33:21;;;;;;;10.18;7.80;;;16.10;79.50;;;;;;5069313;28;20999;-55
2022/02/23 12:35:50;;;;;;;10.05;7.20;;;16.10;77.20;;;;;;5051603;28;20499;-56
2022/02/23 12:38:30;;;;;;;10.02;7.40;;;16.00;78.10;;;;;;5068538;28;20408;-55
2022/02/23 12:40:57;;;;;;;8.43;7.20;;;15.70;80.40;;;;;;5069764;28;20383;-55
2022/02/23 12:43:23;;;;;;;8.20;7.40;;;15.60;79.30;;;;;;5068060;28;20383;-55
2022/02/23 12:45:50;;;;;;;8.88;7.32;;;15.80;80.00;;;;;;5069560;28;20386;-56
2022/02/23 12:48:16;;;;;;;9.32;7.38;;;16.10;78.80;;;;;;5068631;28;20387;-55
2022/02/23 12:50:42;;;;;;;8.70;7.80;;;16.30;79.40;;;;;;5069642;28;20512;-56
2022/02/23 12:53:08;;;;;;;9.90;8.20;;;16.40;77.70;;;;;;5068663;28;20878;-56
2022/02/23 12:55:34;;;;;;;10.73;7.80;;;16.30;75.40;;;;;;5069670;28;20380;-56
2022/02/23 12:58:00;;;;;;;10.73;7.80;;;16.10;77.60;;;;;;5069448;28;20418;-56
2022/02/23 13:00:29;;;;;;;9.77;7.50;;;15.70;76.90;;;;;;5068639;28;20425;-56
2022/02/23 13:02:55;;;;;;;8.83;7.73;;;15.60;76.30;;;;;;5069464;28;20387;-56
2022/02/23 13:05:25;;;;;;;7.65;3.90;;;15.20;78.40;;;;;;5050564;28;20391;-56
2022/02/23 13:07:52;;;;;;;8.20;2.53;;;15.10;79.80;;;;;;5069417;28;20392;-56
2022/02/23 13:10:18;;;;;;;7.55;2.00;;;15.30;78.20;;;;;;5068502;28;20371;-56
2022/02/23 13:12:45;;;;;;;8.82;2.05;;;15.40;80.40;;;;;;5069077;28;20411;-56